Bucks, AL (36512)

10:05 PM CDT on July 22, 2014 (GMT -0500)
Markwood (KALCITRO1) Elev 308 ft | 31.08 °N, 88.24 °W | Change Station

Current weather conditions updated 12 seconds ago

Mostly Cloudy
Mostly Cloudy
73.2 °F
Feels Like 71 °F
N
0.0
Wind Variable Wind from NNE
Gusts 0.0 mph

Tomorrow is forecast to be Warmer than today.

Today
High -- | Low -- °F
--% Chance of Precip.
Yesterday
High -- | Low -- °F
Precip. -- in
6:03 AM 7:53 PM
Waning Crescent, 13% visible
Pressure 30.04 in
Visibility 10.0 miles
Clouds Mostly Cloudy 6000 ft
Heat Index 71 °F
Dew Point 70 °F
Humidity 90%
Rainfall 0.00 in
Snow Depth Not available.
UV 0 out of 12
Pollen 2.70 out of 12
Ozone Good
Flu Activity Not available.
METAR KMOB 230256Z 16005KT 10SM BKN060 23/22 A3005 RMK AO2 LTG DSNT S SLP173 T02330222 50009

More Conditions Fewer Conditions

Pressure 30.04 in
Visibility 10.0 miles
Clouds Mostly Cloudy 6000 ft
Heat Index 71 °F
Dew Point 70 °F
Humidity 90%
Rainfall 0.00 in
Snow Depth Not available.
UV 0 out of 12
Pollen 2.70 out of 12
Ozone Good
Flu Activity Not available.
METAR KMOB 230256Z 16005KT 10SM BKN060 23/22 A3005 RMK AO2 LTG DSNT S SLP173 T02330222 50009

More Conditions Fewer Conditions

10-Day Weather Forecast

Almanac

Astronomy

Jul. 22, 2014 Rise Set
Actual Time 6:03 AM CDT 7:53 PM CDT
Civil Twilight 5:36 AM CDT 8:20 PM CDT
Nautical Twilight 5:03 AM CDT 8:53 PM CDT
Astronomical Twilight 4:29 AM CDT 9:27 PM CDT
Moon 2:33 AM CDT (7/22) 4:33 PM CDT (7/22)
Length of Visible Light 14h 44m
Length of Day
13h 50m
Tomorrow will be 1m 9s shorter.
Waning Crescent, 13% of the Moon is Illuminated
Today
Waning Crescent
Jul 26
New
Aug 3
First Quarter
Aug 10
Full
Aug 17
Last Quarter

Today's Extremes

State Highs State Lows

Community

WunderPhotos

Upload Photos

1,736,465 photos uploaded!

Nearby

Air Quality

  Air Quality AQ Index Pollutant
Yesterday Good
OZONE
Current Good
OZONE
Tuesday Good
OZONE
Wednesday Good
OZONE

Snow Depth

Station Depth Elevation
No new snow has been reported.

Earthquake Activity

City Distance Mag. Time & Date
No recent earthquake activity has been reported nearby.
Minimum magnitude displayed is 2.5.

Coastal Water Temperatures

Place Temperature
Mobile State Docks, AL 84.9 °F
Coast Guard Sector Mobile, AL 82.9 °F

Nearby Weather Stations

Station Location Temp. Heat Index Dew Point Humidity Wind Precip. Elev Updated Type
Markwood, Citronelle, AL 73.2 °F 71 °F 70 °F 90% NNE  at  0.0 mph 0.00 in / hr 308 ft 10:05 PM CDT Normal
Chalet Ridge, Bay Minette, AL 72.7 °F - 71 °F 94% North  at  0.0 mph 0.00 in / hr 285 ft 10:05 PM CDT Rapid Fire

Show More Stations Show Fewer Stations